Time;durP1;ratioP1;P1;durP2;ratioP2;P2;SDS_P1;SDS_P2;PMS_P1;PMS_P2;Temp;Humidity;BMP_temperature;BMP_pressure;BME280_temperature;BME280_humidity;BME280_pressure;Samples;Min_cycle;Max_cycle;Signal;HPM_P1;HPM_P2
2022/07/05 06:24:05;;;;;;;4.62;3.62;;;;;;;26.71;56.25;100153.78;1729865;82;21097;-42
2022/07/05 06:26:32;;;;;;;5.05;3.47;;;;;;;26.85;55.77;100156.88;1690675;83;21012;-39
2022/07/05 06:28:59;;;;;;;5.37;3.00;;;;;;;26.95;54.46;100149.02;1720145;82;21463;-39
2022/07/05 06:31:26;;;;;;;4.00;3.30;;;;;;;27.02;54.06;100147.16;1719331;82;20967;-39
2022/07/05 06:33:52;;;;;;;3.85;3.55;;;;;;;27.15;53.34;100146.31;1667020;85;21563;-39
2022/07/05 06:36:19;;;;;;;8.70;3.95;;;;;;;27.31;52.57;100150.97;1696254;83;20973;-47
2022/07/05 06:38:46;;;;;;;3.25;2.85;;;;;;;27.44;51.25;100145.08;1709786;83;21046;-47
2022/07/05 06:41:12;;;;;;;3.42;3.12;;;;;;;27.55;50.88;100144.30;1699776;82;21576;-40
2022/07/05 06:43:39;;;;;;;8.35;2.95;;;;;;;27.65;49.84;100148.49;1699306;83;21017;-39
2022/07/05 06:46:11;;;;;;;6.08;3.77;;;;;;;27.75;50.04;100147.74;1696273;83;21480;-39
2022/07/05 06:48:38;;;;;;;2.87;2.52;;;;;;;27.84;47.79;100145.73;1678426;83;21523;-40
2022/07/05 06:51:04;;;;;;;7.53;3.30;;;;;;;27.88;47.25;100147.69;1688925;82;20993;-39
2022/07/05 06:53:31;;;;;;;2.90;2.40;;;;;;;27.88;47.84;100143.66;1699218;82;20986;-39
2022/07/05 06:55:59;;;;;;;4.83;2.67;;;;;;;27.92;47.42;100145.16;1697476;82;20980;-40
2022/07/05 06:58:26;;;;;;;2.92;2.50;;;;;;;28.02;47.49;100144.84;1696741;83;21613;-39
2022/07/05 07:00:53;;;;;;;6.30;2.90;;;;;;;28.10;47.43;100138.87;1689626;84;20982;-39
2022/07/05 07:03:20;;;;;;;5.67;3.10;;;;;;;28.16;47.28;100142.45;1694324;82;21018;-39
2022/07/05 07:05:47;;;;;;;4.92;2.92;;;;;;;28.20;47.10;100141.74;1703203;83;21027;-39
2022/07/05 07:10:59;;;;;;;4.30;2.87;;;;;;;28.26;47.34;100141.27;1710664;82;21039;-39
2022/07/05 07:13:26;;;;;;;2.95;2.50;;;;;;;28.37;46.31;100145.39;1706803;84;21083;-39
2022/07/05 07:15:52;;;;;;;6.28;2.90;;;;;;;28.47;46.25;100144.17;1700628;82;20982;-39
2022/07/05 07:18:19;;;;;;;5.05;2.60;;;;;;;28.57;45.75;100142.00;1691127;84;21081;-39
2022/07/05 07:20:47;;;;;;;5.00;2.60;;;;;;;28.67;44.22;100142.65;1695392;82;21055;-40
2022/07/05 07:23:16;;;;;;;3.20;2.90;;;;;;;28.71;44.06;100146.33;1697029;83;21560;-40
2022/07/05 07:25:42;;;;;;;2.90;2.55;;;;;;;28.81;44.57;100142.41;1681809;83;21639;-40
2022/07/05 07:28:09;;;;;;;2.95;2.70;;;;;;;28.94;44.40;100144.56;1691273;83;21078;-39
2022/07/05 07:30:36;;;;;;;3.50;2.80;;;;;;;29.08;44.10;100148.84;1695673;82;21534;-39
2022/07/05 07:33:04;;;;;;;2.50;2.30;;;;;;;29.19;43.82;100147.50;1699003;82;21066;-39
2022/07/05 07:35:31;;;;;;;5.20;2.60;;;;;;;29.19;43.27;100143.95;1689710;84;21041;-40
2022/07/05 07:37:58;;;;;;;6.03;3.42;;;;;;;29.15;42.67;100150.06;1683635;83;21061;-40
2022/07/05 07:40:24;;;;;;;2.80;2.42;;;;;;;29.12;43.38;100148.98;1678031;84;21033;-39
2022/07/05 07:42:51;;;;;;;4.15;2.80;;;;;;;29.19;43.72;100150.20;1666899;84;21631;-40
2022/07/05 07:45:18;;;;;;;7.70;2.62;;;;;;;29.23;42.75;100141.39;1664958;84;21005;-39
2022/07/05 07:47:46;;;;;;;5.12;2.80;;;;;;;29.26;42.51;100139.78;1679514;84;21529;-39
2022/07/05 07:50:12;;;;;;;3.52;2.47;;;;;;;29.31;42.11;100141.63;1679195;84;21021;-40
2022/07/05 07:52:40;;;;;;;6.15;2.80;;;;;;;29.40;41.78;100137.70;1677006;84;21055;-39
2022/07/05 07:55:08;;;;;;;5.50;2.40;;;;;;;29.52;42.07;100141.27;1683491;84;21041;-41
2022/07/05 07:57:35;;;;;;;6.17;2.87;;;;;;;29.66;41.95;100139.64;1673131;84;21055;-47
2022/07/05 08:00:02;;;;;;;4.70;2.35;;;;;;;29.79;42.04;100131.89;1664282;85;20993;-47
2022/07/05 08:02:31;;;;;;;3.37;2.95;;;;;;;29.90;42.06;100123.77;1672233;84;21059;-47
2022/07/05 08:04:58;;;;;;;7.58;2.52;;;;;;;30.01;41.54;100122.88;1694460;83;21559;-47
2022/07/05 08:07:25;;;;;;;5.97;3.00;;;;;;;30.08;40.80;100123.56;1677377;84;21021;-47
2022/07/05 08:09:52;;;;;;;3.37;2.37;;;;;;;30.13;40.96;100120.52;1664066;84;21475;-47
2022/07/05 08:12:19;;;;;;;7.85;2.55;;;;;;;30.22;40.33;100127.85;1677844;83;21055;-47
2022/07/05 08:14:46;;;;;;;3.45;2.55;;;;;;;30.28;39.49;100117.89;1672611;84;21631;-47
2022/07/05 08:17:14;;;;;;;3.45;2.30;;;;;;;30.32;39.75;100120.66;1672935;84;21042;-40
2022/07/05 08:22:29;;;;;;;4.83;2.22;;;;;;;30.49;37.83;100121.92;1669791;84;21105;-47
2022/07/05 08:24:56;;;;;;;4.03;3.12;;;;;;;30.45;38.28;100125.40;1660405;83;21680;-39
2022/07/05 08:27:22;;;;;;;3.45;2.17;;;;;;;30.45;38.09;100125.40;1695228;84;21037;-39
2022/07/05 08:29:49;;;;;;;4.22;2.20;;;;;;;30.53;37.56;100124.73;1689306;84;20978;-42
2022/07/05 08:32:16;;;;;;;2.98;2.67;;;;;;;30.59;36.81;100125.55;1696724;84;20975;-47
2022/07/05 08:34:43;;;;;;;2.80;2.22;;;;;;;30.65;36.29;100128.22;1692780;84;21030;-47
2022/07/05 08:37:10;;;;;;;6.25;2.58;;;;;;;30.68;36.82;100127.50;1690794;84;20970;-48
2022/07/05 08:39:36;;;;;;;7.83;2.80;;;;;;;30.77;37.15;100130.38;1687879;84;21018;-48
2022/07/05 08:42:04;;;;;;;4.22;2.25;;;;;;;30.90;36.94;100131.86;1689210;84;21572;-39
2022/07/05 08:44:35;;;;;;;5.80;2.72;;;;;;;31.04;36.17;100137.42;1688707;84;21575;-40
2022/07/05 08:47:03;;;;;;;6.70;2.30;;;;;;;31.18;35.43;100134.34;1668336;83;20972;-41
2022/07/05 08:49:33;;;;;;;2.50;2.30;;;;;;;31.31;35.45;100130.58;1699680;83;21021;-47
2022/07/05 08:52:02;;;;;;;4.97;2.47;;;;;;;31.33;35.93;100128.11;1699024;83;21475;-48
2022/07/05 08:54:28;;;;;;;3.50;2.12;;;;;;;31.34;35.56;100131.67;1685478;83;21023;-47
2022/07/05 08:56:55;;;;;;;5.15;2.25;;;;;;;31.32;34.82;100130.97;1688307;84;20985;-48
2022/07/05 08:59:21;;;;;;;3.37;1.90;;;;;;;31.34;35.22;100122.21;1690336;84;21134;-40
2022/07/05 09:01:48;;;;;;;5.12;2.87;;;;;;;31.39;34.76;100122.66;1694337;84;21006;-47
2022/07/05 09:04:15;;;;;;;5.70;2.25;;;;;;;31.43;34.53;100117.34;1687318;84;21042;-39
2022/07/05 09:06:42;;;;;;;2.40;2.20;;;;;;;31.48;33.76;100116.41;1685087;84;21018;-40
2022/07/05 09:09:08;;;;;;;6.53;2.10;;;;;;;31.43;33.84;100112.80;1695663;84;21117;-47
2022/07/05 09:11:41;;;;;;;4.33;2.75;;;;;;;31.33;33.77;100109.20;1695859;84;21014;-41
2022/07/05 09:14:23;;;;;;;5.17;2.35;;;;;;;31.21;34.24;100106.22;1683526;84;21074;-40
2022/07/05 09:16:49;;;;;;;5.50;2.25;;;;;;;31.21;34.57;100102.16;1698289;84;20990;-40
2022/07/05 09:19:17;;;;;;;2.60;2.40;;;;;;;31.28;34.73;100107.40;1697227;84;21065;-41
2022/07/05 09:21:43;;;;;;;2.70;2.12;;;;;;;31.39;34.15;100105.09;1690508;84;20950;-47
2022/07/05 09:24:11;;;;;;;7.05;2.30;;;;;;;31.54;35.02;100110.45;1655997;86;21063;-39
2022/07/05 09:26:41;;;;;;;2.45;2.25;;;;;;;31.63;33.19;100093.41;1690626;84;20968;-47
2022/07/05 09:29:11;;;;;;;2.10;1.85;;;;;;;31.69;32.87;100102.80;1669170;84;21617;-47
2022/07/05 09:31:41;;;;;;;2.25;2.00;;;;;;;31.66;32.90;100097.19;1669940;84;21888;-47
2022/07/05 09:34:09;;;;;;;3.25;2.25;;;;;;;31.68;33.18;100092.98;1670180;84;21067;-40
2022/07/05 09:37:02;;;;;;;8.25;2.20;;;;;;;31.69;32.86;100092.84;1688507;84;21059;-40
2022/07/05 09:39:38;;;;;;;1.98;1.70;;;;;;;31.72;33.09;100093.08;1695780;83;21092;-48
2022/07/05 09:42:14;;;;;;;3.05;1.75;;;;;;;31.83;33.20;100087.53;1659533;84;21014;-47
2022/07/05 09:44:52;;;;;;;8.18;2.17;;;;;;;31.85;31.74;100084.72;1659806;84;21066;-48
2022/07/05 09:47:21;;;;;;;4.25;2.05;;;;;;;31.77;32.85;100086.22;1685618;84;20984;-47
2022/07/05 09:49:55;;;;;;;5.03;1.92;;;;;;;31.82;33.71;100089.89;1676396;84;20991;-40
2022/07/05 09:52:34;;;;;;;4.28;3.12;;;;;;;31.89;32.98;100087.47;1682207;84;21018;-41
2022/07/05 09:55:08;;;;;;;3.50;1.82;;;;;;;31.89;32.65;100084.77;1684998;84;21006;-47
2022/07/05 09:57:36;;;;;;;3.62;2.15;;;;;;;31.87;32.95;100085.41;1685234;84;21882;-40
2022/07/05 10:00:16;;;;;;;3.20;2.08;;;;;;;31.90;32.58;100083.30;1686579;84;21580;-40
2022/07/05 10:02:51;;;;;;;3.37;2.00;;;;;;;31.94;32.35;100078.44;1682056;84;21038;-47
2022/07/05 10:05:22;;;;;;;6.37;2.20;;;;;;;31.98;31.91;100079.36;1682437;84;21029;-39
2022/07/05 10:07:54;;;;;;;6.47;2.33;;;;;;;31.99;31.90;100074.81;1679469;84;21605;-40
2022/07/05 10:10:30;;;;;;;3.22;2.15;;;;;;;32.00;31.92;100069.75;1671832;84;21069;-47
2022/07/05 10:12:59;;;;;;;2.15;1.65;;;;;;;32.04;31.94;100075.23;1672137;84;21056;-39
2022/07/05 10:15:29;;;;;;;2.42;1.80;;;;;;;32.10;32.03;100082.78;1680799;84;21105;-39
2022/07/05 10:18:07;;;;;;;3.58;2.20;;;;;;;32.07;32.33;100073.61;1683477;84;21065;-39
2022/07/05 10:20:41;;;;;;;5.28;2.22;;;;;;;32.05;32.01;100079.14;1689754;84;21002;-47
2022/07/05 10:23:13;;;;;;;2.55;1.90;;;;;;;32.03;32.37;100077.59;1664022;84;21428;-40
2022/07/05 10:25:41;;;;;;;4.20;1.65;;;;;;;32.04;32.04;100070.67;1684482;84;21051;-40
2022/07/05 10:28:08;;;;;;;2.75;2.00;;;;;;;32.07;31.21;100073.61;1688853;84;21118;-47
2022/07/05 10:30:35;;;;;;;3.42;2.00;;;;;;;32.08;30.11;100069.05;1684070;84;21048;-40
2022/07/05 10:33:03;;;;;;;2.05;1.82;;;;;;;32.11;29.83;100072.30;1680153;84;21323;-47
2022/07/05 10:35:31;;;;;;;4.53;1.95;;;;;;;32.19;29.80;100064.84;1679761;84;21515;-39
2022/07/05 10:37:58;;;;;;;2.62;1.87;;;;;;;32.27;29.88;100062.25;1679686;84;21060;-47
2022/07/05 10:40:26;;;;;;;4.28;2.27;;;;;;;32.51;29.58;100063.16;1678978;85;21083;-47
2022/07/05 10:42:56;;;;;;;4.67;2.02;;;;;;;32.74;28.65;100065.87;1680470;84;21099;-40
2022/07/05 10:45:30;;;;;;;3.80;1.87;;;;;;;32.95;29.61;100057.56;1680383;85;21044;-39
2022/07/05 10:48:22;;;;;;;2.22;1.95;;;;;;;33.08;28.73;100060.77;1681067;85;21091;-47
2022/07/05 10:50:52;;;;;;;;;;;;;;;33.09;28.22;100060.27;1688836;84;21017;-48
2022/07/05 10:53:26;;;;;;;5.67;1.85;;;;;;;33.12;28.94;100061.84;1694873;84;20090;-41
2022/07/05 10:56:06;;;;;;;2.10;1.90;;;;;;;33.11;28.76;100054.21;1695121;84;21077;-40
2022/07/05 10:58:41;;;;;;;3.10;1.90;;;;;;;33.20;28.25;100056.00;1695206;83;21125;-38
2022/07/05 11:01:25;;;;;;;2.80;1.90;;;;;;;33.27;28.34;100065.22;1694972;84;20997;-46
2022/07/05 11:04:00;;;;;;;4.17;2.00;;;;;;;33.33;28.53;100056.98;1695707;83;21080;-40
2022/07/05 11:06:41;;;;;;;3.35;2.05;;;;;;;33.44;27.39;100051.89;1642770;86;21092;-38
2022/07/05 11:09:15;;;;;;;2.52;1.80;;;;;;;33.42;28.80;100055.27;1643942;87;21073;-39
2022/07/05 11:11:49;;;;;;;2.22;1.77;;;;;;;33.41;27.73;100057.13;1644377;87;21085;-47
2022/07/05 11:14:28;;;;;;;3.87;2.10;;;;;;;33.40;28.26;100053.16;1639352;87;21170;-47
2022/07/05 11:17:15;;;;;;;4.08;2.40;;;;;;;33.47;28.98;100050.25;1639077;87;20998;-46
2022/07/05 11:20:01;;;;;;;2.67;2.08;;;;;;;33.53;28.86;100050.48;1644211;87;21569;-47
2022/07/05 11:22:27;;;;;;;4.72;2.00;;;;;;;33.55;27.16;100040.32;1644504;87;21034;-38
2022/07/05 11:24:55;;;;;;;4.78;1.90;;;;;;;33.59;28.26;100040.87;1643365;87;21144;-39
2022/07/05 11:27:21;;;;;;;5.50;2.05;;;;;;;33.60;27.61;100035.30;1585068;87;21164;-45
2022/07/05 11:29:50;;;;;;;4.03;1.70;;;;;;;33.53;26.02;100049.12;1644154;86;21105;-46
2022/07/05 11:32:23;;;;;;;3.12;1.82;;;;;;;33.42;26.78;100051.20;1644357;87;21079;-46
2022/07/05 11:34:53;;;;;;;3.05;2.27;;;;;;;33.31;27.00;100047.66;1644370;87;21101;-47
2022/07/05 11:37:28;;;;;;;5.10;1.70;;;;;;;33.24;27.26;100043.01;1643947;87;21026;-47
2022/07/05 11:40:14;;;;;;;2.98;1.70;;;;;;;33.19;26.72;100039.89;1646313;87;21081;-45
2022/07/05 11:42:49;;;;;;;3.90;2.27;;;;;;;33.06;25.92;100041.11;1642769;84;21093;-46
2022/07/05 11:45:16;;;;;;;5.80;2.52;;;;;;;32.89;26.10;100037.84;1679987;84;21125;-39
2022/07/05 11:47:44;;;;;;;2.40;1.80;;;;;;;32.71;27.49;100040.45;1656803;84;21137;-39
2022/07/05 11:50:11;;;;;;;2.17;1.98;;;;;;;32.57;27.57;100028.22;1657487;84;21069;-39
2022/07/05 11:52:39;;;;;;;2.95;2.05;;;;;;;32.54;27.24;100032.59;1657559;84;21125;-39
2022/07/05 11:55:09;;;;;;;3.05;1.92;;;;;;;32.45;27.12;100029.91;1668570;84;21567;-40
2022/07/05 11:57:36;;;;;;;4.40;1.98;;;;;;;32.26;27.29;100024.88;1681176;84;21067;-46
2022/07/05 12:00:04;;;;;;;4.72;1.80;;;;;;;32.18;27.93;100027.47;1680723;85;21020;-47
2022/07/05 12:02:37;;;;;;;4.30;1.70;;;;;;;32.23;28.01;100022.94;1680206;84;21488;-46
2022/07/05 12:05:04;;;;;;;3.10;1.87;;;;;;;32.33;28.22;100024.28;1674679;84;21034;-46
2022/07/05 12:07:33;;;;;;;2.90;1.75;;;;;;;32.43;27.64;100014.33;1693303;84;21590;-47
2022/07/05 12:12:47;;;;;;;5.17;1.70;;;;;;;32.53;28.05;100017.86;1690704;84;21043;-46
2022/07/05 12:15:19;;;;;;;2.35;1.92;;;;;;;32.57;26.90;100019.25;1688629;84;21570;-46
2022/07/05 12:17:49;;;;;;;1.80;1.70;;;;;;;32.54;27.21;100017.71;1681728;85;21071;-46
2022/07/05 12:20:23;;;;;;;2.37;1.80;;;;;;;32.54;27.65;100019.56;1681455;85;21603;-46
2022/07/05 12:22:50;;;;;;;3.62;2.10;;;;;;;32.52;27.99;100015.62;1681459;84;21032;-46
2022/07/05 12:25:22;;;;;;;1.95;1.75;;;;;;;32.43;27.52;100015.18;1680896;84;21068;-39
